sensor_id;sensor_type;location;lat;lon;timestamp;pressure;altitude;pressure_sealevel;temperature;humidity
23166;BME280;11751;42.700;24.170;2023-05-07T00:01:32;94211.47;;;12.90;nan
23166;BME280;11751;42.700;24.170;2023-05-07T00:03:57;94210.69;;;12.90;nan
23166;BME280;11751;42.700;24.170;2023-05-07T00:06:22;94212.00;;;12.89;nan
23166;BME280;11751;42.700;24.170;2023-05-07T00:08:48;94206.78;;;12.78;nan
23166;BME280;11751;42.700;24.170;2023-05-07T00:11:13;94209.59;;;12.78;nan
23166;BME280;11751;42.700;24.170;2023-05-07T00:13:39;94213.19;;;12.71;nan
23166;BME280;11751;42.700;24.170;2023-05-07T00:16:05;94200.31;;;12.61;nan
23166;BME280;11751;42.700;24.170;2023-05-07T00:18:30;94204.78;;;12.64;nan
23166;BME280;11751;42.700;24.170;2023-05-07T00:20:56;94206.13;;;12.63;nan
23166;BME280;11751;42.700;24.170;2023-05-07T00:23:22;94193.41;;;12.54;nan
23166;BME280;11751;42.700;24.170;2023-05-07T00:25:48;94192.88;;;12.48;nan
23166;BME280;11751;42.700;24.170;2023-05-07T00:28:13;94200.56;;;12.40;nan
23166;BME280;11751;42.700;24.170;2023-05-07T00:30:39;94186.72;;;12.42;nan
23166;BME280;11751;42.700;24.170;2023-05-07T00:33:04;94193.66;;;12.41;nan
23166;BME280;11751;42.700;24.170;2023-05-07T00:35:29;94199.47;;;12.36;nan
23166;BME280;11751;42.700;24.170;2023-05-07T00:37:55;94194.59;;;12.36;nan
23166;BME280;11751;42.700;24.170;2023-05-07T00:40:21;94196.31;;;12.32;nan
23166;BME280;11751;42.700;24.170;2023-05-07T00:42:46;94199.28;;;12.34;nan
23166;BME280;11751;42.700;24.170;2023-05-07T00:45:15;94206.03;;;12.31;nan
23166;BME280;11751;42.700;24.170;2023-05-07T00:47:40;94206.63;;;12.22;nan
23166;BME280;11751;42.700;24.170;2023-05-07T00:50:07;94207.00;;;12.18;nan
23166;BME280;11751;42.700;24.170;2023-05-07T00:52:33;94210.16;;;12.22;nan
23166;BME280;11751;42.700;24.170;2023-05-07T00:55:04;94203.31;;;12.01;nan
23166;BME280;11751;42.700;24.170;2023-05-07T00:57:33;94204.81;;;12.02;nan
23166;BME280;11751;42.700;24.170;2023-05-07T01:00:01;94202.94;;;11.90;nan
23166;BME280;11751;42.700;24.170;2023-05-07T01:02:27;94212.69;;;11.89;nan
23166;BME280;11751;42.700;24.170;2023-05-07T01:04:52;94210.63;;;11.74;nan
23166;BME280;11751;42.700;24.170;2023-05-07T01:07:17;94207.06;;;11.74;nan
23166;BME280;11751;42.700;24.170;2023-05-07T01:09:43;94216.06;;;11.65;nan
23166;BME280;11751;42.700;24.170;2023-05-07T01:12:09;94213.94;;;11.28;nan
23166;BME280;11751;42.700;24.170;2023-05-07T01:14:35;94213.56;;;11.24;nan
23166;BME280;11751;42.700;24.170;2023-05-07T01:17:00;94210.22;;;11.33;nan
23166;BME280;11751;42.700;24.170;2023-05-07T01:19:26;94222.91;;;11.34;nan
23166;BME280;11751;42.700;24.170;2023-05-07T01:21:58;94219.91;;;11.32;nan
23166;BME280;11751;42.700;24.170;2023-05-07T01:24:26;94222.34;;;11.28;nan
23166;BME280;11751;42.700;24.170;2023-05-07T01:26:51;94224.56;;;11.22;nan
23166;BME280;11751;42.700;24.170;2023-05-07T01:29:17;94236.94;;;11.19;nan
23166;BME280;11751;42.700;24.170;2023-05-07T01:31:43;94240.06;;;11.08;nan
23166;BME280;11751;42.700;24.170;2023-05-07T01:34:09;94236.72;;;11.09;nan
23166;BME280;11751;42.700;24.170;2023-05-07T01:36:38;94232.03;;;11.05;nan
23166;BME280;11751;42.700;24.170;2023-05-07T01:39:05;94231.88;;;11.10;nan
23166;BME280;11751;42.700;24.170;2023-05-07T01:41:31;94232.56;;;11.03;nan
23166;BME280;11751;42.700;24.170;2023-05-07T01:43:58;94236.31;;;10.98;nan
23166;BME280;11751;42.700;24.170;2023-05-07T01:46:24;94234.41;;;10.93;nan
23166;BME280;11751;42.700;24.170;2023-05-07T01:48:51;94227.31;;;10.92;nan
23166;BME280;11751;42.700;24.170;2023-05-07T01:51:16;94242.25;;;10.87;nan
23166;BME280;11751;42.700;24.170;2023-05-07T01:53:42;94235.50;;;10.83;nan
23166;BME280;11751;42.700;24.170;2023-05-07T01:56:09;94228.38;;;10.74;nan
23166;BME280;11751;42.700;24.170;2023-05-07T01:58:34;94233.63;;;10.78;nan
23166;BME280;11751;42.700;24.170;2023-05-07T02:00:59;94227.28;;;10.77;nan
23166;BME280;11751;42.700;24.170;2023-05-07T02:03:25;94226.88;;;10.73;nan
23166;BME280;11751;42.700;24.170;2023-05-07T02:05:51;94226.13;;;10.65;nan
23166;BME280;11751;42.700;24.170;2023-05-07T02:08:16;94218.13;;;10.69;nan
23166;BME280;11751;42.700;24.170;2023-05-07T02:10:41;94218.66;;;10.68;nan
23166;BME280;11751;42.700;24.170;2023-05-07T02:13:07;94209.31;;;10.65;nan
23166;BME280;11751;42.700;24.170;2023-05-07T02:15:32;94203.88;;;10.60;nan
23166;BME280;11751;42.700;24.170;2023-05-07T02:18:03;94208.91;;;10.54;nan
23166;BME280;11751;42.700;24.170;2023-05-07T02:20:28;94215.44;;;10.56;nan
23166;BME280;11751;42.700;24.170;2023-05-07T02:22:54;94205.16;;;10.51;nan
23166;BME280;11751;42.700;24.170;2023-05-07T02:25:19;94203.31;;;10.54;nan
23166;BME280;11751;42.700;24.170;2023-05-07T02:27:45;94202.22;;;10.57;nan
23166;BME280;11751;42.700;24.170;2023-05-07T02:30:10;94204.41;;;10.51;nan
23166;BME280;11751;42.700;24.170;2023-05-07T02:32:36;94203.47;;;10.48;nan
23166;BME280;11751;42.700;24.170;2023-05-07T02:35:01;94202.75;;;10.55;nan
23166;BME280;11751;42.700;24.170;2023-05-07T02:37:27;94201.94;;;10.40;nan
23166;BME280;11751;42.700;24.170;2023-05-07T02:39:52;94203.22;;;10.39;nan
23166;BME280;11751;42.700;24.170;2023-05-07T02:42:17;94200.28;;;10.44;nan
23166;BME280;11751;42.700;24.170;2023-05-07T02:44:43;94198.75;;;10.36;nan
23166;BME280;11751;42.700;24.170;2023-05-07T02:47:08;94194.81;;;10.31;nan
23166;BME280;11751;42.700;24.170;2023-05-07T02:49:34;94192.03;;;10.31;nan
23166;BME280;11751;42.700;24.170;2023-05-07T02:52:00;94188.25;;;10.29;nan
23166;BME280;11751;42.700;24.170;2023-05-07T02:54:25;94189.75;;;10.30;nan
23166;BME280;11751;42.700;24.170;2023-05-07T02:56:51;94189.03;;;10.29;nan
23166;BME280;11751;42.700;24.170;2023-05-07T02:59:16;94189.34;;;10.19;nan
23166;BME280;11751;42.700;24.170;2023-05-07T03:01:41;94190.22;;;10.14;nan
23166;BME280;11751;42.700;24.170;2023-05-07T03:04:09;94187.84;;;10.18;nan
23166;BME280;11751;42.700;24.170;2023-05-07T03:06:35;94199.44;;;10.22;nan
23166;BME280;11751;42.700;24.170;2023-05-07T03:09:01;94194.94;;;10.19;nan
23166;BME280;11751;42.700;24.170;2023-05-07T03:11:26;94190.22;;;10.14;nan
23166;BME280;11751;42.700;24.170;2023-05-07T03:13:52;94196.59;;;10.14;nan
23166;BME280;11751;42.700;24.170;2023-05-07T03:16:17;94195.59;;;10.04;nan
23166;BME280;11751;42.700;24.170;2023-05-07T03:18:43;94201.94;;;10.05;nan
23166;BME280;11751;42.700;24.170;2023-05-07T03:21:08;94187.84;;;9.90;nan
23166;BME280;11751;42.700;24.170;2023-05-07T03:23:33;94192.16;;;9.91;nan
23166;BME280;11751;42.700;24.170;2023-05-07T03:25:59;94199.59;;;9.88;nan
23166;BME280;11751;42.700;24.170;2023-05-07T03:28:24;94200.63;;;9.78;nan
23166;BME280;11751;42.700;24.170;2023-05-07T03:30:50;94201.25;;;9.84;nan
23166;BME280;11751;42.700;24.170;2023-05-07T03:33:15;94208.88;;;9.83;nan
23166;BME280;11751;42.700;24.170;2023-05-07T03:35:41;94203.69;;;9.87;nan
23166;BME280;11751;42.700;24.170;2023-05-07T03:38:07;94205.22;;;9.96;nan
23166;BME280;11751;42.700;24.170;2023-05-07T03:40:32;94201.13;;;9.97;nan
23166;BME280;11751;42.700;24.170;2023-05-07T03:42:59;94207.28;;;9.95;nan
23166;BME280;11751;42.700;24.170;2023-05-07T03:45:25;94205.84;;;10.02;nan
23166;BME280;11751;42.700;24.170;2023-05-07T03:47:51;94200.47;;;10.11;nan
23166;BME280;11751;42.700;24.170;2023-05-07T03:50:16;94206.84;;;10.12;nan
23166;BME280;11751;42.700;24.170;2023-05-07T03:52:41;94213.22;;;10.20;nan
23166;BME280;11751;42.700;24.170;2023-05-07T03:55:07;94213.22;;;10.20;nan
23166;BME280;11751;42.700;24.170;2023-05-07T03:57:33;94212.50;;;10.26;nan
23166;BME280;11751;42.700;24.170;2023-05-07T03:59:58;94218.00;;;10.39;nan
23166;BME280;11751;42.700;24.170;2023-05-07T04:02:23;94216.31;;;10.44;nan
23166;BME280;11751;42.700;24.170;2023-05-07T04:04:49;94213.56;;;10.51;nan
23166;BME280;11751;42.700;24.170;2023-05-07T04:07:15;94214.88;;;10.58;nan
23166;BME280;11751;42.700;24.170;2023-05-07T04:09:40;94214.00;;;10.70;nan
23166;BME280;11751;42.700;24.170;2023-05-07T04:12:06;94216.16;;;11.07;nan
23166;BME280;11751;42.700;24.170;2023-05-07T04:14:31;94210.59;;;11.52;nan
23166;BME280;11751;42.700;24.170;2023-05-07T04:16:58;94210.81;;;11.91;nan
23166;BME280;11751;42.700;24.170;2023-05-07T04:19:24;94221.72;;;12.41;nan
23166;BME280;11751;42.700;24.170;2023-05-07T04:21:50;94223.81;;;12.95;nan
23166;BME280;11751;42.700;24.170;2023-05-07T04:24:15;94222.03;;;13.39;nan
23166;BME280;11751;42.700;24.170;2023-05-07T04:26:41;94222.44;;;13.84;nan
23166;BME280;11751;42.700;24.170;2023-05-07T04:29:06;94224.31;;;14.30;nan
23166;BME280;11751;42.700;24.170;2023-05-07T04:31:32;94223.81;;;14.75;nan
23166;BME280;11751;42.700;24.170;2023-05-07T04:33:58;94222.19;;;15.15;nan
23166;BME280;11751;42.700;24.170;2023-05-07T04:36:23;94221.09;;;15.54;nan
23166;BME280;11751;42.700;24.170;2023-05-07T04:38:53;94219.31;;;15.94;nan
23166;BME280;11751;42.700;24.170;2023-05-07T04:41:18;94218.56;;;16.29;nan
23166;BME280;11751;42.700;24.170;2023-05-07T04:43:43;94225.31;;;16.72;nan
23166;BME280;11751;42.700;24.170;2023-05-07T04:46:09;94222.34;;;16.89;nan
23166;BME280;11751;42.700;24.170;2023-05-07T04:48:35;94230.34;;;16.45;nan
23166;BME280;11751;42.700;24.170;2023-05-07T04:51:01;94219.78;;;16.64;nan
23166;BME280;11751;42.700;24.170;2023-05-07T04:53:26;94221.75;;;16.62;nan
23166;BME280;11751;42.700;24.170;2023-05-07T04:55:56;94220.69;;;16.95;nan
23166;BME280;11751;42.700;24.170;2023-05-07T04:58:22;94221.91;;;16.83;nan
23166;BME280;11751;42.700;24.170;2023-05-07T05:00:47;94223.84;;;16.80;nan
23166;BME280;11751;42.700;24.170;2023-05-07T05:03:13;94222.22;;;16.87;nan
23166;BME280;11751;42.700;24.170;2023-05-07T05:05:38;94222.31;;;16.51;nan
23166;BME280;11751;42.700;24.170;2023-05-07T05:08:04;94214.44;;;16.49;nan
23166;BME280;11751;42.700;24.170;2023-05-07T05:10:29;94221.66;;;16.24;nan
23166;BME280;11751;42.700;24.170;2023-05-07T05:12:55;94220.22;;;16.42;nan
23166;BME280;11751;42.700;24.170;2023-05-07T05:15:20;94228.63;;;16.78;nan
23166;BME280;11751;42.700;24.170;2023-05-07T05:17:45;94230.25;;;16.71;nan
23166;BME280;11751;42.700;24.170;2023-05-07T05:20:11;94228.84;;;16.44;nan
23166;BME280;11751;42.700;24.170;2023-05-07T05:22:37;94229.66;;;16.63;nan
23166;BME280;11751;42.700;24.170;2023-05-07T05:25:03;94232.31;;;16.71;nan
23166;BME280;11751;42.700;24.170;2023-05-07T05:27:28;94225.00;;;16.58;nan
23166;BME280;11751;42.700;24.170;2023-05-07T05:29:54;94227.13;;;16.77;nan
23166;BME280;11751;42.700;24.170;2023-05-07T05:32:19;94223.53;;;16.67;nan
23166;BME280;11751;42.700;24.170;2023-05-07T05:34:45;94222.47;;;16.53;nan
23166;BME280;11751;42.700;24.170;2023-05-07T05:37:10;94224.00;;;16.82;nan
23166;BME280;11751;42.700;24.170;2023-05-07T05:39:36;94226.81;;;16.92;nan
23166;BME280;11751;42.700;24.170;2023-05-07T05:42:01;94221.75;;;17.00;nan
23166;BME280;11751;42.700;24.170;2023-05-07T05:44:27;94223.53;;;17.05;nan
23166;BME280;11751;42.700;24.170;2023-05-07T05:46:52;94225.63;;;17.13;nan
23166;BME280;11751;42.700;24.170;2023-05-07T05:49:20;94234.09;;;17.32;nan
23166;BME280;11751;42.700;24.170;2023-05-07T05:51:46;94226.19;;;17.21;nan
23166;BME280;11751;42.700;24.170;2023-05-07T05:54:11;94237.25;;;17.36;nan
23166;BME280;11751;42.700;24.170;2023-05-07T05:56:37;94231.81;;;17.59;nan
23166;BME280;11751;42.700;24.170;2023-05-07T05:59:03;94230.06;;;17.54;nan
23166;BME280;11751;42.700;24.170;2023-05-07T06:01:29;94220.63;;;17.61;nan
23166;BME280;11751;42.700;24.170;2023-05-07T06:03:54;94221.50;;;17.73;nan
23166;BME280;11751;42.700;24.170;2023-05-07T06:06:20;94223.53;;;17.23;nan
23166;BME280;11751;42.700;24.170;2023-05-07T06:08:45;94226.03;;;17.38;nan
23166;BME280;11751;42.700;24.170;2023-05-07T06:11:11;94215.75;;;17.52;nan
23166;BME280;11751;42.700;24.170;2023-05-07T06:13:36;94218.25;;;17.58;nan
23166;BME280;11751;42.700;24.170;2023-05-07T06:16:03;94216.16;;;17.68;nan
23166;BME280;11751;42.700;24.170;2023-05-07T06:18:29;94216.81;;;17.87;nan
23166;BME280;11751;42.700;24.170;2023-05-07T06:20:54;94207.16;;;18.11;nan
23166;BME280;11751;42.700;24.170;2023-05-07T06:23:20;94208.81;;;18.14;nan
23166;BME280;11751;42.700;24.170;2023-05-07T06:25:49;94203.16;;;17.74;nan
23166;BME280;11751;42.700;24.170;2023-05-07T06:28:15;94207.72;;;17.20;nan
23166;BME280;11751;42.700;24.170;2023-05-07T06:30:41;94213.47;;;17.60;nan
23166;BME280;11751;42.700;24.170;2023-05-07T06:33:06;94210.59;;;17.79;nan
23166;BME280;11751;42.700;24.170;2023-05-07T06:35:31;94213.34;;;17.58;nan
23166;BME280;11751;42.700;24.170;2023-05-07T06:37:57;94208.19;;;17.85;nan
23166;BME280;11751;42.700;24.170;2023-05-07T06:40:22;94204.88;;;17.49;nan
23166;BME280;11751;42.700;24.170;2023-05-07T06:42:48;94199.53;;;18.13;nan
23166;BME280;11751;42.700;24.170;2023-05-07T06:45:13;94199.63;;;18.55;nan
23166;BME280;11751;42.700;24.170;2023-05-07T06:47:38;94196.44;;;18.82;nan
23166;BME280;11751;42.700;24.170;2023-05-07T06:50:04;94198.75;;;18.74;nan
23166;BME280;11751;42.700;24.170;2023-05-07T06:52:30;94195.31;;;19.07;nan
23166;BME280;11751;42.700;24.170;2023-05-07T06:54:55;94200.06;;;19.14;nan
23166;BME280;11751;42.700;24.170;2023-05-07T06:57:21;94200.47;;;19.20;nan
23166;BME280;11751;42.700;24.170;2023-05-07T06:59:46;94204.75;;;19.42;nan
23166;BME280;11751;42.700;24.170;2023-05-07T07:02:11;94207.63;;;19.65;nan
23166;BME280;11751;42.700;24.170;2023-05-07T07:04:37;94206.94;;;19.76;nan
23166;BME280;11751;42.700;24.170;2023-05-07T07:07:02;94200.53;;;19.43;nan
23166;BME280;11751;42.700;24.170;2023-05-07T07:09:28;94194.94;;;19.77;nan
23166;BME280;11751;42.700;24.170;2023-05-07T07:11:53;94197.97;;;20.02;nan
23166;BME280;11751;42.700;24.170;2023-05-07T07:14:19;94202.38;;;19.94;nan
23166;BME280;11751;42.700;24.170;2023-05-07T07:16:45;94202.44;;;20.05;nan
23166;BME280;11751;42.700;24.170;2023-05-07T07:19:12;94199.94;;;20.11;nan
23166;BME280;11751;42.700;24.170;2023-05-07T07:21:37;94194.25;;;20.46;nan
23166;BME280;11751;42.700;24.170;2023-05-07T07:24:03;94195.22;;;20.50;nan
23166;BME280;11751;42.700;24.170;2023-05-07T07:26:28;94185.59;;;20.44;nan
23166;BME280;11751;42.700;24.170;2023-05-07T07:28:54;94179.59;;;20.85;nan
23166;BME280;11751;42.700;24.170;2023-05-07T07:31:19;94179.75;;;21.12;nan
23166;BME280;11751;42.700;24.170;2023-05-07T07:33:44;94173.50;;;21.27;nan
23166;BME280;11751;42.700;24.170;2023-05-07T07:36:10;94180.00;;;21.16;nan
23166;BME280;11751;42.700;24.170;2023-05-07T07:38:35;94174.41;;;21.18;nan
23166;BME280;11751;42.700;24.170;2023-05-07T07:41:01;94174.75;;;21.24;nan
23166;BME280;11751;42.700;24.170;2023-05-07T07:43:27;94176.91;;;21.12;nan
23166;BME280;11751;42.700;24.170;2023-05-07T07:45:53;94185.13;;;21.31;nan
23166;BME280;11751;42.700;24.170;2023-05-07T07:48:18;94186.66;;;21.46;nan
23166;BME280;11751;42.700;24.170;2023-05-07T07:50:43;94179.66;;;21.60;nan
23166;BME280;11751;42.700;24.170;2023-05-07T07:53:09;94184.00;;;21.61;nan
23166;BME280;11751;42.700;24.170;2023-05-07T07:55:40;94186.66;;;21.46;nan
23166;BME280;11751;42.700;24.170;2023-05-07T07:58:06;94185.06;;;21.18;nan
23166;BME280;11751;42.700;24.170;2023-05-07T08:00:31;94193.44;;;21.52;nan
23166;BME280;11751;42.700;24.170;2023-05-07T08:02:57;94179.56;;;21.58;nan
23166;BME280;11751;42.700;24.170;2023-05-07T08:05:23;94175.03;;;21.66;nan
23166;BME280;11751;42.700;24.170;2023-05-07T08:07:48;94180.38;;;21.85;nan
23166;BME280;11751;42.700;24.170;2023-05-07T08:10:18;94179.69;;;22.12;nan
23166;BME280;11751;42.700;24.170;2023-05-07T08:12:48;94175.19;;;21.82;nan
23166;BME280;11751;42.700;24.170;2023-05-07T08:15:14;94165.75;;;22.18;nan
23166;BME280;11751;42.700;24.170;2023-05-07T08:17:40;94158.59;;;22.17;nan
23166;BME280;11751;42.700;24.170;2023-05-07T08:20:08;94179.06;;;22.13;nan
23166;BME280;11751;42.700;24.170;2023-05-07T08:22:35;94172.56;;;22.64;nan
23166;BME280;11751;42.700;24.170;2023-05-07T08:25:01;94165.69;;;22.56;nan
23166;BME280;11751;42.700;24.170;2023-05-07T08:27:26;94170.44;;;23.05;nan
23166;BME280;11751;42.700;24.170;2023-05-07T08:29:52;94160.72;;;22.83;nan
23166;BME280;11751;42.700;24.170;2023-05-07T08:32:18;94159.00;;;22.78;nan
23166;BME280;11751;42.700;24.170;2023-05-07T08:34:43;94161.00;;;22.89;nan
23166;BME280;11751;42.700;24.170;2023-05-07T08:37:08;94158.03;;;23.43;nan
23166;BME280;11751;42.700;24.170;2023-05-07T08:39:34;94147.91;;;23.55;nan
23166;BME280;11751;42.700;24.170;2023-05-07T08:42:00;94157.13;;;23.83;nan
23166;BME280;11751;42.700;24.170;2023-05-07T08:44:28;94155.75;;;23.26;nan
23166;BME280;11751;42.700;24.170;2023-05-07T08:46:58;94149.94;;;23.82;nan
23166;BME280;11751;42.700;24.170;2023-05-07T08:49:25;94141.44;;;23.55;nan
23166;BME280;11751;42.700;24.170;2023-05-07T08:51:51;94139.88;;;23.81;nan
23166;BME280;11751;42.700;24.170;2023-05-07T08:54:17;94151.25;;;24.10;nan
23166;BME280;11751;42.700;24.170;2023-05-07T08:56:45;94144.50;;;23.88;nan
23166;BME280;11751;42.700;24.170;2023-05-07T08:59:10;94135.44;;;23.78;nan
23166;BME280;11751;42.700;24.170;2023-05-07T09:01:36;94142.91;;;23.85;nan
23166;BME280;11751;42.700;24.170;2023-05-07T09:04:01;94131.78;;;23.91;nan
23166;BME280;11751;42.700;24.170;2023-05-07T09:06:27;94129.75;;;24.24;nan
23166;BME280;11751;42.700;24.170;2023-05-07T09:08:53;94135.00;;;24.60;nan
23166;BME280;11751;42.700;24.170;2023-05-07T09:11:21;94136.03;;;24.51;nan
23166;BME280;11751;42.700;24.170;2023-05-07T09:13:48;94139.69;;;24.38;nan
23166;BME280;11751;42.700;24.170;2023-05-07T09:16:15;94142.25;;;24.63;nan
23166;BME280;11751;42.700;24.170;2023-05-07T09:18:43;94138.81;;;24.82;nan
23166;BME280;11751;42.700;24.170;2023-05-07T09:21:11;94125.47;;;24.89;nan
23166;BME280;11751;42.700;24.170;2023-05-07T09:23:37;94135.59;;;24.74;nan
23166;BME280;11751;42.700;24.170;2023-05-07T09:26:03;94127.63;;;24.88;nan
23166;BME280;11751;42.700;24.170;2023-05-07T09:28:29;94122.66;;;24.73;nan
23166;BME280;11751;42.700;24.170;2023-05-07T09:30:55;94124.38;;;24.47;nan
23166;BME280;11751;42.700;24.170;2023-05-07T09:33:21;94117.47;;;24.85;nan
23166;BME280;11751;42.700;24.170;2023-05-07T09:35:48;94121.13;;;25.20;nan
23166;BME280;11751;42.700;24.170;2023-05-07T09:38:17;94113.47;;;25.60;nan
23166;BME280;11751;42.700;24.170;2023-05-07T09:40:44;94117.13;;;25.62;nan
23166;BME280;11751;42.700;24.170;2023-05-07T09:43:11;94116.72;;;25.70;nan
23166;BME280;11751;42.700;24.170;2023-05-07T09:45:38;94114.84;;;25.24;nan
23166;BME280;11751;42.700;24.170;2023-05-07T09:48:05;94107.56;;;25.56;nan
23166;BME280;11751;42.700;24.170;2023-05-07T09:50:44;94104.53;;;24.84;nan
23166;BME280;11751;42.700;24.170;2023-05-07T09:53:14;94103.03;;;24.83;nan
23166;BME280;11751;42.700;24.170;2023-05-07T09:55:40;94104.44;;;24.49;nan
23166;BME280;11751;42.700;24.170;2023-05-07T09:58:06;94099.16;;;24.59;nan
23166;BME280;11751;42.700;24.170;2023-05-07T10:00:32;94095.50;;;24.74;nan
23166;BME280;11751;42.700;24.170;2023-05-07T10:02:58;94094.47;;;25.01;nan
23166;BME280;11751;42.700;24.170;2023-05-07T10:05:25;94089.84;;;25.09;nan
23166;BME280;11751;42.700;24.170;2023-05-07T10:07:52;94098.59;;;25.13;nan
23166;BME280;11751;42.700;24.170;2023-05-07T10:10:18;94088.41;;;25.25;nan
23166;BME280;11751;42.700;24.170;2023-05-07T10:12:44;94089.66;;;25.75;nan
23166;BME280;11751;42.700;24.170;2023-05-07T10:15:11;94093.72;;;26.24;nan
23166;BME280;11751;42.700;24.170;2023-05-07T10:17:38;94089.03;;;26.32;nan
23166;BME280;11751;42.700;24.170;2023-05-07T10:20:05;94089.34;;;26.40;nan
23166;BME280;11751;42.700;24.170;2023-05-07T10:22:40;94091.25;;;26.53;nan
23166;BME280;11751;42.700;24.170;2023-05-07T10:25:20;94088.84;;;26.46;nan
23166;BME280;11751;42.700;24.170;2023-05-07T10:27:48;94089.31;;;26.79;nan
23166;BME280;11751;42.700;24.170;2023-05-07T10:30:33;94083.31;;;26.92;nan
23166;BME280;11751;42.700;24.170;2023-05-07T10:33:05;94078.19;;;26.11;nan
23166;BME280;11751;42.700;24.170;2023-05-07T10:35:39;94067.88;;;26.04;nan
23166;BME280;11751;42.700;24.170;2023-05-07T10:38:06;94069.59;;;26.31;nan
23166;BME280;11751;42.700;24.170;2023-05-07T10:40:31;94066.63;;;26.09;nan
23166;BME280;11751;42.700;24.170;2023-05-07T10:43:00;94066.56;;;26.07;nan
23166;BME280;11751;42.700;24.170;2023-05-07T10:45:27;94070.97;;;25.74;nan
23166;BME280;11751;42.700;24.170;2023-05-07T10:48:12;94062.66;;;25.45;nan
23166;BME280;11751;42.700;24.170;2023-05-07T10:50:39;94064.47;;;25.19;nan
23166;BME280;11751;42.700;24.170;2023-05-07T10:53:25;94059.88;;;25.12;nan
23166;BME280;11751;42.700;24.170;2023-05-07T10:56:27;94059.44;;;25.02;nan
23166;BME280;11751;42.700;24.170;2023-05-07T10:58:53;94057.47;;;25.06;nan
23166;BME280;11751;42.700;24.170;2023-05-07T11:01:52;94064.44;;;25.02;nan
23166;BME280;11751;42.700;24.170;2023-05-07T11:04:18;94056.63;;;24.87;nan
23166;BME280;11751;42.700;24.170;2023-05-07T11:15:09;94069.47;;;24.05;nan
23166;BME280;11751;42.700;24.170;2023-05-07T11:17:55;94067.69;;;24.28;nan
23166;BME280;11751;42.700;24.170;2023-05-07T11:20:45;94058.53;;;24.47;nan
23166;BME280;11751;42.700;24.170;2023-05-07T11:26:06;94075.94;;;25.19;nan
23166;BME280;11751;42.700;24.170;2023-05-07T11:28:37;94071.03;;;25.39;nan
23166;BME280;11751;42.700;24.170;2023-05-07T11:31:03;94068.41;;;25.45;nan
23166;BME280;11751;42.700;24.170;2023-05-07T11:33:29;94069.97;;;25.30;nan
23166;BME280;11751;42.700;24.170;2023-05-07T11:35:55;94081.66;;;25.54;nan
23166;BME280;11751;42.700;24.170;2023-05-07T11:38:21;94069.28;;;25.32;nan
23166;BME280;11751;42.700;24.170;2023-05-07T11:40:57;94073.06;;;25.54;nan
23166;BME280;11751;42.700;24.170;2023-05-07T11:43:23;94065.19;;;25.54;nan
23166;BME280;11751;42.700;24.170;2023-05-07T11:45:49;94066.34;;;25.47;nan
23166;BME280;11751;42.700;24.170;2023-05-07T11:48:15;94067.91;;;25.33;nan
23166;BME280;11751;42.700;24.170;2023-05-07T11:50:59;94064.31;;;25.15;nan
23166;BME280;11751;42.700;24.170;2023-05-07T11:53:26;94065.06;;;25.15;nan
23166;BME280;11751;42.700;24.170;2023-05-07T11:55:55;94061.84;;;25.25;nan
23166;BME280;11751;42.700;24.170;2023-05-07T11:58:22;94063.13;;;24.87;nan
23166;BME280;11751;42.700;24.170;2023-05-07T12:00:49;94070.03;;;25.15;nan
23166;BME280;11751;42.700;24.170;2023-05-07T12:03:15;94059.66;;;24.40;nan
23166;BME280;11751;42.700;24.170;2023-05-07T12:05:40;94053.16;;;24.55;nan
23166;BME280;11751;42.700;24.170;2023-05-07T12:08:07;94058.94;;;24.73;nan
23166;BME280;11751;42.700;24.170;2023-05-07T12:10:32;94053.81;;;24.54;nan
23166;BME280;11751;42.700;24.170;2023-05-07T12:12:58;94056.50;;;24.34;nan
23166;BME280;11751;42.700;24.170;2023-05-07T12:15:23;94065.31;;;24.08;nan
23166;BME280;11751;42.700;24.170;2023-05-07T12:17:49;94065.88;;;23.89;nan
23166;BME280;11751;42.700;24.170;2023-05-07T12:20:16;94062.88;;;23.56;nan
23166;BME280;11751;42.700;24.170;2023-05-07T12:22:42;94061.94;;;23.36;nan
23166;BME280;11751;42.700;24.170;2023-05-07T12:25:08;94057.84;;;23.10;nan
23166;BME280;11751;42.700;24.170;2023-05-07T12:27:37;94050.13;;;22.70;nan
23166;BME280;11751;42.700;24.170;2023-05-07T12:30:03;94054.88;;;23.08;nan
23166;BME280;11751;42.700;24.170;2023-05-07T12:32:29;94057.75;;;22.66;nan
23166;BME280;11751;42.700;24.170;2023-05-07T12:34:54;94048.09;;;22.73;nan
23166;BME280;11751;42.700;24.170;2023-05-07T12:37:26;94051.88;;;22.77;nan
23166;BME280;11751;42.700;24.170;2023-05-07T12:40:10;94051.50;;;22.69;nan
23166;BME280;11751;42.700;24.170;2023-05-07T12:42:37;94052.09;;;22.81;nan
23166;BME280;11751;42.700;24.170;2023-05-07T12:45:15;94060.16;;;23.00;nan
23166;BME280;11751;42.700;24.170;2023-05-07T12:47:47;94051.56;;;23.14;nan
23166;BME280;11751;42.700;24.170;2023-05-07T12:50:13;94053.16;;;23.17;nan
23166;BME280;11751;42.700;24.170;2023-05-07T12:52:39;94047.91;;;23.27;nan
23166;BME280;11751;42.700;24.170;2023-05-07T12:55:06;94045.84;;;23.14;nan
23166;BME280;11751;42.700;24.170;2023-05-07T12:57:42;94045.00;;;23.40;nan
23166;BME280;11751;42.700;24.170;2023-05-07T13:00:08;94035.03;;;23.41;nan
23166;BME280;11751;42.700;24.170;2023-05-07T13:02:37;94046.28;;;23.37;nan
23166;BME280;11751;42.700;24.170;2023-05-07T13:05:03;94040.94;;;23.45;nan
23166;BME280;11751;42.700;24.170;2023-05-07T13:07:29;94037.53;;;23.33;nan
23166;BME280;11751;42.700;24.170;2023-05-07T13:09:54;94041.97;;;23.07;nan
23166;BME280;11751;42.700;24.170;2023-05-07T13:12:20;94037.72;;;23.08;nan
23166;BME280;11751;42.700;24.170;2023-05-07T13:14:45;94035.56;;;23.22;nan
23166;BME280;11751;42.700;24.170;2023-05-07T13:17:11;94032.50;;;23.18;nan
23166;BME280;11751;42.700;24.170;2023-05-07T13:19:36;94039.47;;;22.86;nan
23166;BME280;11751;42.700;24.170;2023-05-07T13:22:03;94027.53;;;22.90;nan